Time;durP1;ratioP1;P1;durP2;ratioP2;P2;SDS_P1;SDS_P2;PMS_P1;PMS_P2;Temp;Humidity;BMP_temperature;BMP_pressure;BME280_temperature;BME280_humidity;BME280_pressure;Samples;Min_cycle;Max_cycle;Signal;HPM_P1;HPM_P2
2023/06/14 00:00:44;;;;;;;79.03;55.42;;;22.30;58.80;;;;;;4934621;28;90170;-72
2023/06/14 00:03:11;;;;;;;78.97;55.22;;;22.20;58.80;;;;;;4920001;28;89293;-71
2023/06/14 00:05:42;;;;;;;80.03;55.65;;;22.20;58.90;;;;;;4935241;28;90189;-72
2023/06/14 00:08:09;;;;;;;79.57;55.38;;;22.20;59.10;;;;;;4929882;28;89589;-71
2023/06/14 00:10:41;;;;;;;80.03;55.35;;;22.10;59.30;;;;;;4941783;28;90759;-70
2023/06/14 00:13:07;;;;;;;78.85;55.28;;;22.10;59.30;;;;;;4943609;28;89979;-72
2023/06/14 00:15:33;;;;;;;79.13;54.90;;;22.10;59.60;;;;;;4942102;28;90151;-72
2023/06/14 00:18:01;;;;;;;79.97;55.42;;;22.00;59.70;;;;;;4939387;28;92867;-72
2023/06/14 00:20:28;;;;;;;78.85;55.45;;;22.00;59.70;;;;;;4937199;28;90029;-71
2023/06/14 00:22:57;;;;;;;78.65;55.20;;;22.00;59.90;;;;;;4935834;28;90372;-72
2023/06/14 00:25:26;;;;;;;79.15;55.20;;;22.00;59.90;;;;;;4937754;28;89679;-72
2023/06/14 00:27:53;;;;;;;80.80;55.17;;;22.00;60.30;;;;;;4937353;28;90697;-71
2023/06/14 00:30:19;;;;;;;79.70;55.28;;;21.90;60.00;;;;;;4937237;28;89596;-72
2023/06/14 00:32:45;;;;;;;81.03;55.20;;;21.90;60.50;;;;;;4930858;28;92254;-72
2023/06/14 00:35:11;;;;;;;78.93;55.00;;;21.90;60.40;;;;;;4930902;28;91101;-71
2023/06/14 00:37:37;;;;;;;80.35;55.42;;;21.90;60.60;;;;;;4927010;28;91777;-72
2023/06/14 00:40:04;;;;;;;78.72;55.22;;;21.80;60.90;;;;;;4933384;28;89571;-72
2023/06/14 00:42:30;;;;;;;79.88;55.25;;;21.80;60.90;;;;;;4936776;28;89940;-71
2023/06/14 00:44:56;;;;;;;80.72;55.35;;;21.80;61.10;;;;;;4938158;28;90923;-72
2023/06/14 00:47:22;;;;;;;78.90;55.20;;;21.80;61.00;;;;;;4936542;28;89958;-72
2023/06/14 00:49:50;;;;;;;79.70;55.03;;;21.80;61.50;;;;;;4935147;28;89999;-70
2023/06/14 00:52:16;;;;;;;78.95;54.95;;;21.80;61.30;;;;;;4937111;28;89290;-71
2023/06/14 00:54:42;;;;;;;78.15;54.53;;;21.80;61.50;;;;;;4934355;28;91227;-72
2023/06/14 00:57:12;;;;;;;78.20;54.80;;;21.70;61.70;;;;;;4936212;28;92030;-71
2023/06/14 00:59:44;;;;;;;79.82;55.20;;;21.70;62.10;;;;;;4936768;28;92353;-72
2023/06/14 01:02:11;;;;;;;78.55;55.20;;;21.70;62.00;;;;;;4925836;28;90301;-69
2023/06/14 01:04:38;;;;;;;81.47;55.08;;;21.70;61.70;;;;;;4933670;28;89859;-72
2023/06/14 01:07:31;;;;;;;78.20;54.72;;;21.70;61.90;;;;;;4937112;28;89862;-69
2023/06/14 01:10:27;;;;;;;78.85;54.70;;;21.70;62.10;;;;;;4939092;28;91313;-72
2023/06/14 01:12:55;;;;;;;78.18;54.85;;;21.60;62.30;;;;;;4934602;28;89977;-72
2023/06/14 01:15:22;;;;;;;79.05;55.03;;;21.60;62.30;;;;;;4938763;28;89929;-71
2023/06/14 01:17:51;;;;;;;79.93;55.13;;;21.60;62.10;;;;;;4937782;28;90411;-72
2023/06/14 01:20:19;;;;;;;79.10;55.15;;;21.50;62.70;;;;;;4935126;28;91647;-73
2023/06/14 01:22:52;;;;;;;78.32;54.78;;;21.50;62.30;;;;;;4933356;28;90092;-74
2023/06/14 01:25:20;;;;;;;79.22;55.17;;;21.50;62.70;;;;;;4939074;28;91969;-73
2023/06/14 01:27:52;;;;;;;78.70;54.88;;;21.50;62.70;;;;;;4932927;28;91295;-74
2023/06/14 01:30:20;;;;;;;78.75;54.83;;;21.50;62.90;;;;;;4927215;28;91416;-72
2023/06/14 01:32:47;;;;;;;80.85;55.35;;;21.50;63.00;;;;;;4935082;28;89916;-72
2023/06/14 01:35:12;;;;;;;78.85;54.85;;;21.40;62.80;;;;;;4937030;28;90022;-72
2023/06/14 01:37:40;;;;;;;78.32;54.83;;;21.40;62.60;;;;;;4938331;28;90157;-73
2023/06/14 01:40:07;;;;;;;78.38;54.92;;;21.40;63.10;;;;;;4937091;28;91068;-72
2023/06/14 01:42:36;;;;;;;79.95;54.90;;;21.40;63.40;;;;;;4927435;28;89324;-73
2023/06/14 01:45:04;;;;;;;78.65;55.05;;;21.40;63.60;;;;;;4926150;28;93417;-72
2023/06/14 01:47:31;;;;;;;78.10;55.17;;;21.30;63.40;;;;;;4931443;28;90136;-71
2023/06/14 01:49:57;;;;;;;78.93;55.15;;;21.30;63.60;;;;;;4932482;28;90902;-71
2023/06/14 01:52:24;;;;;;;78.78;54.92;;;21.30;64.10;;;;;;4936795;28;94207;-71
2023/06/14 01:54:50;;;;;;;78.13;54.70;;;21.30;63.50;;;;;;4930204;28;91710;-72
2023/06/14 01:57:15;;;;;;;79.40;55.00;;;21.30;64.10;;;;;;4930487;28;89569;-73
2023/06/14 01:59:41;;;;;;;80.38;54.97;;;21.30;63.70;;;;;;4932962;28;89582;-71
2023/06/14 02:02:07;;;;;;;78.25;54.83;;;21.30;63.60;;;;;;4936639;28;90351;-71
2023/06/14 02:04:33;;;;;;;78.28;54.85;;;21.30;64.30;;;;;;4937307;28;90021;-71
2023/06/14 02:06:59;;;;;;;77.97;54.88;;;21.30;64.20;;;;;;4935338;28;89186;-72
2023/06/14 02:09:24;;;;;;;78.15;54.72;;;21.20;64.40;;;;;;4935647;28;89876;-71
2023/06/14 02:11:50;;;;;;;77.70;54.88;;;21.20;64.40;;;;;;4935658;28;90582;-74
2023/06/14 02:14:17;;;;;;;78.18;54.92;;;21.20;64.70;;;;;;4934207;28;92182;-73
2023/06/14 02:16:48;;;;;;;77.60;54.88;;;21.20;64.00;;;;;;4934446;28;89869;-72
2023/06/14 02:19:16;;;;;;;78.65;54.85;;;21.20;64.30;;;;;;4937768;28;89484;-72
2023/06/14 02:21:42;;;;;;;78.00;54.85;;;21.20;64.10;;;;;;4940673;28;89336;-71
2023/06/14 02:24:08;;;;;;;79.43;55.05;;;21.20;64.30;;;;;;4929991;28;90693;-72
2023/06/14 02:26:33;;;;;;;78.25;55.25;;;21.10;65.10;;;;;;4931969;28;89615;-70
2023/06/14 02:28:59;;;;;;;77.63;54.67;;;21.10;65.10;;;;;;4926971;28;91473;-72
2023/06/14 02:31:25;;;;;;;78.20;54.78;;;21.10;64.40;;;;;;4932675;28;89754;-72
2023/06/14 02:33:51;;;;;;;78.50;54.53;;;21.10;65.30;;;;;;4933371;28;90158;-71
2023/06/14 02:36:17;;;;;;;78.45;54.47;;;21.00;64.20;;;;;;4926305;28;89988;-72
2023/06/14 02:38:42;;;;;;;77.65;54.47;;;21.00;65.10;;;;;;4920712;28;91212;-72
2023/06/14 02:41:08;;;;;;;77.55;54.75;;;21.10;65.40;;;;;;4931064;28;91749;-72
2023/06/14 02:43:33;;;;;;;78.25;54.97;;;21.00;65.30;;;;;;4929145;28;89779;-72
2023/06/14 02:45:59;;;;;;;78.00;54.85;;;21.00;65.00;;;;;;4929881;28;90916;-72
2023/06/14 02:48:25;;;;;;;77.40;54.35;;;21.00;65.50;;;;;;4929113;28;90108;-72
2023/06/14 02:50:51;;;;;;;78.32;54.83;;;20.90;65.20;;;;;;4924431;28;90393;-70
2023/06/14 02:53:17;;;;;;;78.55;54.78;;;21.00;65.60;;;;;;4923642;28;91876;-72
2023/06/14 02:55:42;;;;;;;77.38;54.33;;;20.90;66.00;;;;;;4932038;28;89706;-70
2023/06/14 02:58:08;;;;;;;79.82;54.80;;;20.90;66.00;;;;;;4930837;28;89661;-72
2023/06/14 03:00:35;;;;;;;77.53;54.85;;;20.90;65.70;;;;;;4924972;28;91937;-72
2023/06/14 03:03:01;;;;;;;78.28;54.97;;;20.90;65.70;;;;;;4925720;28;95626;-72
2023/06/14 03:05:28;;;;;;;77.50;54.58;;;20.90;65.40;;;;;;4922692;28;94811;-73
2023/06/14 03:07:54;;;;;;;77.20;54.13;;;20.80;66.10;;;;;;4930328;28;94810;-73
2023/06/14 03:10:20;;;;;;;77.25;54.67;;;20.90;66.60;;;;;;4930861;28;90289;-71
2023/06/14 03:12:47;;;;;;;78.40;54.85;;;20.90;66.00;;;;;;4922638;28;95002;-74
2023/06/14 03:15:17;;;;;;;77.65;54.75;;;20.90;66.40;;;;;;4924318;28;91355;-73
2023/06/14 03:17:45;;;;;;;78.17;54.50;;;20.80;66.20;;;;;;4927841;28;91447;-69
2023/06/14 03:20:11;;;;;;;76.95;54.58;;;20.70;66.20;;;;;;4931425;28;88625;-72
2023/06/14 03:22:37;;;;;;;77.65;54.75;;;20.80;65.70;;;;;;4931128;28;89779;-72
2023/06/14 03:25:04;;;;;;;78.40;54.58;;;20.80;66.20;;;;;;4934447;28;89656;-72
2023/06/14 03:27:29;;;;;;;76.38;54.47;;;20.70;66.30;;;;;;4931709;28;90537;-71
2023/06/14 03:29:55;;;;;;;78.13;55.10;;;20.70;65.90;;;;;;4930017;28;89652;-72
2023/06/14 03:32:21;;;;;;;76.78;54.72;;;20.70;66.90;;;;;;4930070;28;92825;-72
2023/06/14 03:34:46;;;;;;;76.35;54.42;;;20.70;66.50;;;;;;4935394;28;90204;-70
2023/06/14 03:37:12;;;;;;;77.35;55.00;;;20.70;66.60;;;;;;4931689;28;89832;-72
2023/06/14 03:39:38;;;;;;;79.32;55.25;;;20.70;66.20;;;;;;4929074;28;90478;-70
2023/06/14 03:42:04;;;;;;;76.95;54.50;;;20.70;66.80;;;;;;4934061;28;90195;-71
2023/06/14 03:44:30;;;;;;;77.35;54.88;;;20.70;67.20;;;;;;4939640;28;88756;-71
2023/06/14 03:46:55;;;;;;;77.53;54.78;;;20.70;66.80;;;;;;4936107;28;90854;-71
2023/06/14 03:49:21;;;;;;;76.95;54.72;;;20.70;67.00;;;;;;4933767;28;89653;-71
2023/06/14 03:51:50;;;;;;;76.63;54.50;;;20.70;66.70;;;;;;4943073;28;90984;-73
2023/06/14 03:54:16;;;;;;;77.20;54.63;;;20.60;66.50;;;;;;4934659;28;90246;-73
2023/06/14 03:56:42;;;;;;;77.85;55.65;;;20.60;67.00;;;;;;4939907;28;89587;-70
2023/06/14 03:59:07;;;;;;;78.40;55.15;;;20.50;67.10;;;;;;4940178;28;89460;-72
2023/06/14 04:01:33;;;;;;;77.78;54.33;;;20.50;66.50;;;;;;4938782;28;89511;-72
2023/06/14 04:03:59;;;;;;;77.80;54.85;;;20.40;66.50;;;;;;4937642;28;90360;-72
2023/06/14 04:06:31;;;;;;;78.65;55.25;;;20.50;66.80;;;;;;4936720;28;89853;-72
2023/06/14 04:08:57;;;;;;;76.93;54.72;;;20.40;66.60;;;;;;4936703;28;89055;-72
2023/06/14 04:11:25;;;;;;;77.50;54.83;;;20.40;66.60;;;;;;4934769;28;90041;-72
2023/06/14 04:13:53;;;;;;;76.50;54.45;;;20.50;66.30;;;;;;4939271;28;90384;-72
2023/06/14 04:16:19;;;;;;;79.25;55.50;;;20.40;66.30;;;;;;4938947;28;91889;-73
2023/06/14 04:18:46;;;;;;;79.80;54.78;;;20.40;66.60;;;;;;4934980;28;90190;-72
2023/06/14 04:21:12;;;;;;;79.22;54.80;;;20.40;66.50;;;;;;4938674;28;91793;-71
2023/06/14 04:23:38;;;;;;;79.55;54.85;;;20.50;66.00;;;;;;4936288;28;89749;-73
2023/06/14 04:26:04;;;;;;;79.10;54.95;;;20.40;65.90;;;;;;4939536;28;90819;-72
2023/06/14 04:28:29;;;;;;;80.05;54.90;;;20.50;65.70;;;;;;4936259;28;90264;-72
2023/06/14 04:30:56;;;;;;;78.07;54.75;;;20.50;67.10;;;;;;4932208;28;91197;-71
2023/06/14 04:33:25;;;;;;;81.95;55.05;;;20.60;66.40;;;;;;4938419;28;90254;-70
2023/06/14 04:35:53;;;;;;;79.03;54.65;;;20.50;66.60;;;;;;4935608;28;90384;-70
2023/06/14 04:38:25;;;;;;;78.53;54.65;;;20.60;65.30;;;;;;4936315;28;90264;-71
2023/06/14 04:40:52;;;;;;;77.80;54.78;;;20.60;65.80;;;;;;4932208;28;90626;-70
2023/06/14 04:43:24;;;;;;;80.10;54.80;;;20.60;65.60;;;;;;4939103;28;89804;-73
2023/06/14 04:45:51;;;;;;;78.18;54.60;;;20.70;65.60;;;;;;4935509;28;94462;-73
2023/06/14 04:48:18;;;;;;;76.90;54.60;;;20.60;65.50;;;;;;4938313;28;89618;-72
2023/06/14 04:50:43;;;;;;;77.97;54.42;;;20.70;65.40;;;;;;4927384;28;94575;-71
2023/06/14 04:53:10;;;;;;;78.93;54.38;;;20.70;65.30;;;;;;4939211;28;90750;-71
2023/06/14 04:55:37;;;;;;;83.13;54.95;;;20.70;65.00;;;;;;4943386;28;90048;-72
2023/06/14 04:58:03;;;;;;;78.70;54.60;;;20.70;65.10;;;;;;4936713;28;90486;-71
2023/06/14 05:00:30;;;;;;;79.18;54.58;;;20.70;64.70;;;;;;4928869;28;90902;-72
2023/06/14 05:02:56;;;;;;;77.85;55.03;;;20.70;64.60;;;;;;4937208;28;89903;-72
2023/06/14 05:05:22;;;;;;;77.75;54.40;;;20.70;65.00;;;;;;4936888;28;90983;-71
2023/06/14 05:07:48;;;;;;;80.88;54.90;;;20.80;68.60;;;;;;4935848;28;89903;-74
2023/06/14 05:10:14;;;;;;;79.68;55.88;;;20.90;67.10;;;;;;4936042;28;89971;-73
2023/06/14 05:12:39;;;;;;;81.97;56.45;;;20.90;64.00;;;;;;4942007;28;90178;-72
2023/06/14 05:15:05;;;;;;;82.00;56.88;;;20.90;62.10;;;;;;4940883;28;89937;-73
2023/06/14 05:17:31;;;;;;;83.97;57.38;;;20.90;60.70;;;;;;4931344;28;89923;-74
2023/06/14 05:19:56;;;;;;;86.30;56.65;;;20.90;60.10;;;;;;4930130;28;90097;-73
2023/06/14 05:22:22;;;;;;;82.55;57.03;;;20.90;59.90;;;;;;4938554;28;89040;-73
2023/06/14 05:24:48;;;;;;;88.18;56.65;;;20.90;59.40;;;;;;4935627;28;89503;-71
2023/06/14 05:27:14;;;;;;;80.70;56.55;;;20.90;59.10;;;;;;4935605;28;90086;-73
2023/06/14 05:29:40;;;;;;;85.03;56.72;;;20.90;58.80;;;;;;4931484;28;90662;-70
2023/06/14 05:32:06;;;;;;;84.50;57.05;;;20.90;58.80;;;;;;4929292;28;90274;-73
2023/06/14 05:34:31;;;;;;;81.45;56.25;;;21.00;58.20;;;;;;4927892;28;89775;-71
2023/06/14 05:36:57;;;;;;;85.43;56.60;;;21.00;58.40;;;;;;4926223;28;90323;-71
2023/06/14 05:39:24;;;;;;;84.28;56.58;;;21.00;58.20;;;;;;4929702;28;91403;-72
2023/06/14 05:41:49;;;;;;;88.93;57.38;;;21.10;58.10;;;;;;4929943;28;90756;-75
2023/06/14 05:44:15;;;;;;;100.53;60.05;;;21.10;58.00;;;;;;4932742;28;90289;-73
2023/06/14 05:46:41;;;;;;;96.68;58.90;;;21.10;58.00;;;;;;4940438;28;88805;-71
2023/06/14 05:49:06;;;;;;;89.18;58.05;;;21.10;57.80;;;;;;4917545;28;95139;-72
2023/06/14 05:51:32;;;;;;;85.75;57.67;;;21.10;57.80;;;;;;4923886;28;90054;-71
2023/06/14 05:53:57;;;;;;;94.72;58.65;;;21.10;57.50;;;;;;4927867;28;90857;-73
2023/06/14 05:56:23;;;;;;;85.65;58.00;;;21.20;56.70;;;;;;4911337;28;94542;-74
2023/06/14 05:58:50;;;;;;;86.75;58.55;;;21.30;54.40;;;;;;4928905;28;90881;-75
2023/06/14 06:01:16;;;;;;;82.13;57.63;;;21.30;55.00;;;;;;4924014;28;89903;-76
2023/06/14 06:03:45;;;;;;;83.35;58.40;;;21.30;55.70;;;;;;4921105;28;90803;-75
2023/06/14 06:06:11;;;;;;;85.22;58.83;;;21.40;55.40;;;;;;4934431;28;89558;-73
2023/06/14 06:08:37;;;;;;;86.95;58.58;;;21.60;55.40;;;;;;4932358;28;90492;-71
2023/06/14 06:11:03;;;;;;;84.10;58.30;;;21.60;54.50;;;;;;4924374;28;90477;-74
2023/06/14 06:13:28;;;;;;;83.65;58.40;;;21.70;54.50;;;;;;4921427;28;90626;-74
2023/06/14 06:15:54;;;;;;;85.68;57.47;;;21.70;54.20;;;;;;4925814;28;89699;-74
2023/06/14 06:18:19;;;;;;;84.65;57.50;;;21.80;55.00;;;;;;4924373;28;91482;-72
2023/06/14 06:20:46;;;;;;;85.55;58.78;;;21.80;54.10;;;;;;4937616;28;92000;-74
2023/06/14 06:23:12;;;;;;;85.18;57.90;;;21.80;53.10;;;;;;4930127;28;90564;-73
2023/06/14 06:25:38;;;;;;;84.07;57.95;;;21.70;54.10;;;;;;4937904;28;91576;-75
2023/06/14 06:28:03;;;;;;;84.70;58.03;;;21.80;53.60;;;;;;4923836;28;91453;-75
2023/06/14 06:30:29;;;;;;;84.95;57.63;;;21.90;53.70;;;;;;4921984;28;89633;-75
2023/06/14 06:32:55;;;;;;;82.57;57.58;;;22.00;54.10;;;;;;4923526;28;90888;-73
2023/06/14 06:35:21;;;;;;;83.05;57.65;;;22.00;53.20;;;;;;4929494;28;93834;-73
2023/06/14 06:37:47;;;;;;;82.20;57.17;;;22.20;52.20;;;;;;4917141;28;91288;-76
2023/06/14 06:40:13;;;;;;;85.78;57.60;;;22.20;51.80;;;;;;4928401;28;89808;-73
2023/06/14 06:42:38;;;;;;;83.50;57.53;;;22.20;51.40;;;;;;4922001;28;90774;-76
2023/06/14 06:45:05;;;;;;;83.18;57.55;;;22.20;51.10;;;;;;4931331;28;89404;-73
2023/06/14 06:47:31;;;;;;;84.13;57.67;;;22.20;50.50;;;;;;4935374;28;89801;-74
2023/06/14 06:49:56;;;;;;;83.53;57.55;;;22.30;51.30;;;;;;4933617;28;90305;-75
2023/06/14 06:52:22;;;;;;;84.50;57.05;;;22.40;49.80;;;;;;4933513;28;90600;-76
2023/06/14 06:54:49;;;;;;;85.70;57.13;;;22.30;51.20;;;;;;4927729;28;89652;-73
2023/06/14 06:57:14;;;;;;;83.60;57.72;;;22.40;51.30;;;;;;4932405;28;90017;-70
2023/06/14 06:59:40;;;;;;;82.05;56.83;;;22.40;51.20;;;;;;4930817;28;89509;-72
2023/06/14 07:02:06;;;;;;;86.55;57.17;;;22.50;51.10;;;;;;4938538;28;89742;-74
2023/06/14 07:04:31;;;;;;;84.68;56.90;;;22.50;50.60;;;;;;4930224;28;89345;-76
2023/06/14 07:06:57;;;;;;;86.00;56.85;;;22.50;50.80;;;;;;4929066;28;91069;-73
2023/06/14 07:09:24;;;;;;;81.95;56.97;;;22.50;50.50;;;;;;4930768;28;90629;-73
2023/06/14 07:11:50;;;;;;;83.03;56.78;;;22.50;50.90;;;;;;4931393;28;89815;-73
2023/06/14 07:14:16;;;;;;;83.85;57.70;;;22.60;50.90;;;;;;4932061;28;89329;-72
2023/06/14 07:16:42;;;;;;;82.65;57.13;;;22.60;50.10;;;;;;4929200;28;89501;-72
2023/06/14 07:19:09;;;;;;;82.72;57.42;;;22.50;50.50;;;;;;4927562;28;90437;-73
2023/06/14 07:21:35;;;;;;;81.90;57.65;;;22.60;50.50;;;;;;4932330;28;88842;-72
2023/06/14 07:24:00;;;;;;;82.60;57.78;;;22.50;50.90;;;;;;4933690;28;88234;-73
2023/06/14 07:26:26;;;;;;;85.00;57.28;;;22.60;50.40;;;;;;4931967;28;90904;-71
2023/06/14 07:28:52;;;;;;;81.38;56.78;;;22.60;51.50;;;;;;4926660;28;90405;-72
2023/06/14 07:31:19;;;;;;;83.72;57.33;;;22.60;50.90;;;;;;4929924;28;90906;-73
2023/06/14 07:33:45;;;;;;;85.25;57.63;;;22.50;50.40;;;;;;4930889;28;90559;-72
2023/06/14 07:36:10;;;;;;;84.13;57.67;;;22.60;51.80;;;;;;4937496;28;89516;-75
2023/06/14 07:38:36;;;;;;;84.93;57.58;;;22.70;51.20;;;;;;4937424;28;90728;-73
2023/06/14 07:41:02;;;;;;;81.75;57.30;;;22.80;50.20;;;;;;4937580;28;90007;-75
2023/06/14 07:43:28;;;;;;;83.50;57.63;;;22.80;51.00;;;;;;4935657;28;89503;-70
2023/06/14 07:45:54;;;;;;;83.65;57.20;;;22.90;50.20;;;;;;4935958;28;93278;-74
2023/06/14 07:48:20;;;;;;;92.28;57.47;;;23.00;50.40;;;;;;4933679;28;89622;-72
2023/06/14 07:50:46;;;;;;;85.32;57.33;;;22.90;49.50;;;;;;4940405;28;89847;-77
2023/06/14 07:53:12;;;;;;;84.03;57.55;;;23.00;50.60;;;;;;4936883;28;89168;-72
2023/06/14 07:55:38;;;;;;;85.80;57.30;;;23.00;49.30;;;;;;4930646;28;91499;-73
2023/06/14 07:58:05;;;;;;;86.95;57.50;;;23.20;49.30;;;;;;4933211;28;89589;-73
2023/06/14 08:00:31;;;;;;;86.88;57.78;;;23.20;49.20;;;;;;4932222;28;94240;-73
2023/06/14 08:02:59;;;;;;;86.15;57.78;;;23.20;49.30;;;;;;4931472;28;89387;-73
2023/06/14 08:05:26;;;;;;;82.00;57.00;;;23.30;50.60;;;;;;4933869;28;89934;-71
2023/06/14 08:07:54;;;;;;;82.57;57.55;;;23.30;49.80;;;;;;4926411;28;91903;-72
2023/06/14 08:10:22;;;;;;;86.90;57.83;;;23.30;48.30;;;;;;4929664;28;90431;-73
2023/06/14 08:12:49;;;;;;;82.70;57.47;;;23.40;50.00;;;;;;4925174;28;89848;-75
2023/06/14 08:15:18;;;;;;;81.90;57.47;;;23.50;49.00;;;;;;4926653;28;90085;-75
2023/06/14 08:17:44;;;;;;;85.63;57.28;;;23.50;49.90;;;;;;4935694;28;91062;-75
2023/06/14 08:20:11;;;;;;;86.50;57.63;;;23.50;50.60;;;;;;4933201;28;91801;-73
2023/06/14 08:22:37;;;;;;;86.40;57.40;;;23.60;47.10;;;;;;4930543;28;89275;-74
2023/06/14 08:25:04;;;;;;;84.38;57.03;;;23.60;47.60;;;;;;4930344;28;89728;-72
2023/06/14 08:27:30;;;;;;;83.32;57.15;;;23.70;48.70;;;;;;4930313;28;89503;-74
2023/06/14 08:29:56;;;;;;;84.32;57.50;;;23.80;48.90;;;;;;4931822;28;89398;-73
2023/06/14 08:32:22;;;;;;;82.95;58.03;;;23.90;48.20;;;;;;4936218;28;89698;-74
2023/06/14 08:34:48;;;;;;;90.10;58.08;;;23.90;47.70;;;;;;4925665;28;89571;-74
2023/06/14 08:37:14;;;;;;;83.55;57.70;;;23.90;48.20;;;;;;4926302;28;88850;-73
2023/06/14 08:39:39;;;;;;;86.38;58.47;;;23.90;47.90;;;;;;4935927;28;89887;-74
2023/06/14 08:42:07;;;;;;;83.75;57.58;;;23.90;48.40;;;;;;4932179;28;90956;-74
2023/06/14 08:44:33;;;;;;;85.07;57.50;;;24.00;49.10;;;;;;4936681;28;91166;-75
2023/06/14 08:47:00;;;;;;;85.40;57.35;;;24.10;46.40;;;;;;4933106;28;90919;-74
2023/06/14 08:49:26;;;;;;;82.72;57.13;;;24.20;47.20;;;;;;4930363;28;89226;-73
2023/06/14 08:51:59;;;;;;;84.43;57.17;;;24.20;46.40;;;;;;4932266;28;89456;-74
2023/06/14 08:54:34;;;;;;;84.63;57.65;;;24.30;47.50;;;;;;4932404;28;90754;-73
2023/06/14 08:57:00;;;;;;;83.88;57.78;;;24.30;46.60;;;;;;4939597;28;91854;-73
2023/06/14 08:59:28;;;;;;;83.32;57.25;;;24.40;45.90;;;;;;4929187;28;89553;-73
2023/06/14 09:01:54;;;;;;;83.82;57.70;;;24.40;46.50;;;;;;4936748;28;88841;-74
2023/06/14 09:04:29;;;;;;;85.60;57.60;;;24.60;44.70;;;;;;4932096;28;90700;-73
2023/06/14 09:06:55;;;;;;;84.07;57.90;;;24.60;45.00;;;;;;4929123;28;90977;-75
2023/06/14 09:09:22;;;;;;;84.47;57.35;;;24.70;45.40;;;;;;4927153;28;91109;-72
2023/06/14 09:11:51;;;;;;;86.97;57.90;;;24.70;46.80;;;;;;4930102;28;89589;-71
2023/06/14 09:14:19;;;;;;;84.47;57.50;;;24.70;45.40;;;;;;4927189;28;90400;-73
2023/06/14 09:16:44;;;;;;;85.30;57.72;;;24.70;45.00;;;;;;4929314;28;91211;-73
2023/06/14 09:19:23;;;;;;;83.43;57.53;;;24.80;47.50;;;;;;4927912;28;90256;-72
2023/06/14 09:21:51;;;;;;;84.82;57.72;;;24.90;45.80;;;;;;4921901;28;90222;-75
2023/06/14 09:24:17;;;;;;;87.20;57.50;;;25.00;44.00;;;;;;4930783;28;94772;-71
2023/06/14 09:26:42;;;;;;;83.82;57.80;;;25.00;44.40;;;;;;4930346;28;91950;-73
2023/06/14 09:29:09;;;;;;;84.07;57.83;;;25.00;44.70;;;;;;4927402;28;89651;-74
2023/06/14 09:31:35;;;;;;;83.88;58.00;;;25.10;43.70;;;;;;4926644;28;89689;-73
2023/06/14 09:34:02;;;;;;;85.75;57.72;;;25.10;46.40;;;;;;4923873;28;92376;-73
2023/06/14 09:36:28;;;;;;;85.63;57.65;;;25.20;44.20;;;;;;4932293;28;90766;-74
2023/06/14 09:39:04;;;;;;;87.15;58.03;;;25.40;44.00;;;;;;4931042;28;90358;-72
2023/06/14 09:41:36;;;;;;;83.82;57.85;;;25.50;42.30;;;;;;4930240;28;89733;-71
2023/06/14 09:44:04;;;;;;;84.18;58.05;;;25.50;43.70;;;;;;4934208;28;90326;-73
2023/06/14 09:46:31;;;;;;;86.40;57.55;;;25.50;42.90;;;;;;4938917;28;90763;-73
2023/06/14 09:48:57;;;;;;;86.32;58.08;;;25.50;44.60;;;;;;4941443;28;89655;-74
2023/06/14 09:51:23;;;;;;;84.55;57.85;;;25.60;42.90;;;;;;4938331;28;88700;-73
2023/06/14 09:53:49;;;;;;;84.47;58.30;;;25.70;40.90;;;;;;4939557;28;90592;-73
2023/06/14 09:56:23;;;;;;;87.35;58.40;;;25.70;42.80;;;;;;4924152;28;90577;-73
2023/06/14 09:58:53;;;;;;;85.20;58.20;;;25.70;44.40;;;;;;4918117;28;92466;-74
2023/06/14 10:01:20;;;;;;;85.00;57.80;;;25.80;42.10;;;;;;4925507;28;89693;-73
2023/06/14 10:03:46;;;;;;;86.45;58.20;;;25.90;42.80;;;;;;4922637;28;89911;-76
2023/06/14 10:06:12;;;;;;;85.82;58.00;;;26.00;41.40;;;;;;4928365;28;89868;-76
2023/06/14 10:08:39;;;;;;;84.82;58.05;;;25.90;41.80;;;;;;4928636;28;93587;-77
2023/06/14 10:11:05;;;;;;;85.15;58.03;;;26.00;42.40;;;;;;4928885;28;89827;-73
2023/06/14 10:13:35;;;;;;;87.95;58.03;;;26.00;40.80;;;;;;4924470;28;94412;-73
2023/06/14 10:16:13;;;;;;;86.40;58.45;;;26.00;43.20;;;;;;4921541;28;91087;-72
2023/06/14 10:19:08;;;;;;;87.18;58.60;;;26.10;41.30;;;;;;4929261;28;89859;-74
2023/06/14 10:21:57;;;;;;;84.82;57.85;;;26.20;39.30;;;;;;4896874;28;90185;-71
2023/06/14 10:24:33;;;;;;;86.93;58.15;;;26.10;42.80;;;;;;4929047;28;90502;-73
2023/06/14 10:27:02;;;;;;;85.38;58.58;;;26.30;38.50;;;;;;4925157;28;94941;-71
2023/06/14 10:29:31;;;;;;;86.95;58.75;;;26.20;41.40;;;;;;4916380;28;89836;-74
2023/06/14 10:31:58;;;;;;;88.45;58.58;;;26.20;40.50;;;;;;4928512;28;91835;-73
2023/06/14 10:34:31;;;;;;;86.78;58.40;;;26.20;40.80;;;;;;4919540;28;90389;-73
2023/06/14 10:37:13;;;;;;;85.50;58.10;;;26.30;39.10;;;;;;4920203;28;89973;-72
2023/06/14 10:39:47;;;;;;;90.70;58.97;;;26.20;42.60;;;;;;4920672;28;89629;-73
2023/06/14 10:42:14;;;;;;;86.18;58.42;;;26.20;40.60;;;;;;4932837;28;88634;-73
2023/06/14 10:44:42;;;;;;;90.20;58.47;;;26.30;39.30;;;;;;4931407;28;90436;-71
2023/06/14 10:47:24;;;;;;;86.13;58.00;;;26.30;38.50;;;;;;4922810;28;90933;-72
2023/06/14 10:49:55;;;;;;;87.90;58.33;;;26.50;36.90;;;;;;4922554;28;91109;-72
2023/06/14 10:52:27;;;;;;;84.72;57.63;;;26.40;37.10;;;;;;4921257;28;91114;-73
2023/06/14 10:55:06;;;;;;;85.00;58.67;;;26.40;38.50;;;;;;4921001;28;90690;-74
2023/06/14 10:57:36;;;;;;;87.43;58.35;;;26.50;36.30;;;;;;4921285;28;89578;-72
2023/06/14 11:00:11;;;;;;;85.30;58.10;;;26.60;37.40;;;;;;4929830;28;89950;-70
2023/06/14 11:02:40;;;;;;;88.00;58.55;;;26.60;36.30;;;;;;4930616;28;89787;-72
2023/06/14 11:05:10;;;;;;;84.50;58.30;;;26.80;35.10;;;;;;4926776;28;90482;-74
2023/06/14 11:07:55;;;;;;;87.15;58.25;;;26.70;36.50;;;;;;4928753;28;88835;-74
2023/06/14 11:10:41;;;;;;;87.97;58.63;;;26.70;38.60;;;;;;4924794;28;89580;-73
2023/06/14 11:13:08;;;;;;;85.35;58.30;;;26.70;37.40;;;;;;4928964;28;89728;-72
2023/06/14 11:15:35;;;;;;;86.88;58.15;;;26.70;36.60;;;;;;4926284;28;91528;-73
2023/06/14 11:18:02;;;;;;;85.30;58.45;;;26.70;37.30;;;;;;4947679;28;92780;-73
2023/06/14 11:20:30;;;;;;;88.32;58.08;;;26.90;35.20;;;;;;4926747;28;90408;-73
2023/06/14 11:22:56;;;;;;;85.82;58.33;;;26.90;35.70;;;;;;4924388;28;90303;-73
2023/06/14 11:25:22;;;;;;;88.53;58.80;;;26.90;35.60;;;;;;4923208;28;90933;-74
2023/06/14 11:27:50;;;;;;;86.10;58.67;;;26.90;36.80;;;;;;4923257;28;89942;-75
2023/06/14 11:30:16;;;;;;;86.70;58.30;;;26.90;38.00;;;;;;4931566;28;90074;-73
2023/06/14 11:32:42;;;;;;;86.40;58.22;;;27.00;35.50;;;;;;4936888;28;89616;-72
2023/06/14 11:35:09;;;;;;;86.80;58.53;;;27.10;34.60;;;;;;4932783;28;92272;-75
2023/06/14 11:37:39;;;;;;;86.47;58.85;;;27.00;35.30;;;;;;4924923;28;89985;-74
2023/06/14 11:40:09;;;;;;;85.97;58.38;;;27.10;35.20;;;;;;4931185;28;91577;-73
2023/06/14 11:42:35;;;;;;;85.40;58.67;;;27.00;35.00;;;;;;4920573;28;90466;-75
2023/06/14 11:45:02;;;;;;;86.10;58.70;;;27.10;35.30;;;;;;4938250;28;90205;-75
2023/06/14 11:47:38;;;;;;;85.78;58.63;;;27.10;33.40;;;;;;4936276;28;89807;-74
2023/06/14 11:50:09;;;;;;;86.60;58.83;;;27.10;35.50;;;;;;4922255;28;91732;-74
2023/06/14 11:52:36;;;;;;;;;;;27.00;34.70;;;;;;4923630;28;91119;-73
2023/06/14 11:55:05;;;;;;;85.57;58.60;;;27.00;33.80;;;;;;4930126;28;89631;-74
2023/06/14 11:57:33;;;;;;;85.10;58.55;;;27.00;33.60;;;;;;4936894;28;89218;-73
2023/06/14 11:59:59;;;;;;;87.70;58.72;;;27.00;34.10;;;;;;4939958;28;90146;-74
2023/06/14 12:02:27;;;;;;;85.05;58.45;;;27.00;35.10;;;;;;4941009;28;89603;-73
2023/06/14 12:04:53;;;;;;;85.18;58.53;;;27.00;35.60;;;;;;4927228;28;93878;-74
2023/06/14 12:07:21;;;;;;;85.53;57.97;;;27.00;34.80;;;;;;4930380;28;90075;-75
2023/06/14 12:09:53;;;;;;;84.68;58.28;;;27.10;34.30;;;;;;4934675;28;89890;-73
2023/06/14 12:12:21;;;;;;;86.97;58.53;;;27.20;35.10;;;;;;4932078;28;89860;-73
2023/06/14 12:14:47;;;;;;;86.28;58.22;;;27.20;34.40;;;;;;4935297;28;89788;-74
2023/06/14 12:17:17;;;;;;;86.75;58.47;;;27.20;36.00;;;;;;4933554;28;89972;-74
2023/06/14 12:19:43;;;;;;;89.70;58.92;;;27.30;34.60;;;;;;4932059;28;90525;-75
2023/06/14 12:22:13;;;;;;;86.05;58.83;;;27.50;33.20;;;;;;4937701;28;90646;-75
2023/06/14 12:24:42;;;;;;;85.38;58.70;;;27.50;33.00;;;;;;4942098;28;90283;-73
2023/06/14 12:27:08;;;;;;;87.35;58.80;;;27.40;33.60;;;;;;4940531;28;89284;-75
2023/06/14 12:29:34;;;;;;;86.43;59.50;;;27.40;37.50;;;;;;4933459;28;93470;-73